sensor_id;sensor_type;location;lat;lon;timestamp;P1;durP1;ratioP1;P2;durP2;ratioP2
71202;SDS011;58929;47.490;19.090;2023-03-23T00:00:22;33.27;;;18.73;;
71202;SDS011;58929;47.490;19.090;2023-03-23T00:02:49;37.60;;;19.58;;
71202;SDS011;58929;47.490;19.090;2023-03-23T00:05:16;30.40;;;18.63;;
71202;SDS011;58929;47.490;19.090;2023-03-23T00:07:43;36.83;;;18.63;;
71202;SDS011;58929;47.490;19.090;2023-03-23T00:10:12;33.28;;;18.50;;
71202;SDS011;58929;47.490;19.090;2023-03-23T00:12:38;29.95;;;18.65;;
71202;SDS011;58929;47.490;19.090;2023-03-23T00:15:08;34.22;;;18.25;;
71202;SDS011;58929;47.490;19.090;2023-03-23T00:17:38;32.20;;;17.23;;
71202;SDS011;58929;47.490;19.090;2023-03-23T00:20:05;34.28;;;17.50;;
71202;SDS011;58929;47.490;19.090;2023-03-23T00:22:34;28.10;;;17.50;;
71202;SDS011;58929;47.490;19.090;2023-03-23T00:25:03;29.10;;;17.27;;
71202;SDS011;58929;47.490;19.090;2023-03-23T00:27:31;31.05;;;17.00;;
71202;SDS011;58929;47.490;19.090;2023-03-23T00:29:58;28.58;;;16.20;;
71202;SDS011;58929;47.490;19.090;2023-03-23T00:32:25;26.67;;;16.40;;
71202;SDS011;58929;47.490;19.090;2023-03-23T00:37:21;39.80;;;17.85;;
71202;SDS011;58929;47.490;19.090;2023-03-23T00:39:49;32.67;;;17.10;;
71202;SDS011;58929;47.490;19.090;2023-03-23T00:42:17;40.90;;;19.77;;
71202;SDS011;58929;47.490;19.090;2023-03-23T00:44:45;41.95;;;21.52;;
71202;SDS011;58929;47.490;19.090;2023-03-23T00:47:12;34.88;;;19.58;;
71202;SDS011;58929;47.490;19.090;2023-03-23T00:49:41;34.30;;;19.90;;
71202;SDS011;58929;47.490;19.090;2023-03-23T00:52:09;39.75;;;21.60;;
71202;SDS011;58929;47.490;19.090;2023-03-23T00:54:36;36.67;;;20.92;;
71202;SDS011;58929;47.490;19.090;2023-03-23T00:57:03;40.03;;;20.98;;
71202;SDS011;58929;47.490;19.090;2023-03-23T00:59:30;39.17;;;21.92;;
71202;SDS011;58929;47.490;19.090;2023-03-23T01:01:58;39.60;;;21.00;;
71202;SDS011;58929;47.490;19.090;2023-03-23T01:04:25;33.15;;;20.95;;
71202;SDS011;58929;47.490;19.090;2023-03-23T01:06:54;33.03;;;18.67;;
71202;SDS011;58929;47.490;19.090;2023-03-23T01:09:22;37.45;;;17.42;;
71202;SDS011;58929;47.490;19.090;2023-03-23T01:11:50;26.73;;;17.77;;
71202;SDS011;58929;47.490;19.090;2023-03-23T01:14:17;34.83;;;18.23;;
71202;SDS011;58929;47.490;19.090;2023-03-23T01:16:44;29.63;;;18.30;;
71202;SDS011;58929;47.490;19.090;2023-03-23T01:19:13;43.63;;;21.63;;
71202;SDS011;58929;47.490;19.090;2023-03-23T01:21:41;37.63;;;20.40;;
71202;SDS011;58929;47.490;19.090;2023-03-23T01:24:08;42.50;;;20.70;;
71202;SDS011;58929;47.490;19.090;2023-03-23T01:26:34;41.05;;;20.27;;
71202;SDS011;58929;47.490;19.090;2023-03-23T01:29:02;44.15;;;20.95;;
71202;SDS011;58929;47.490;19.090;2023-03-23T01:31:29;37.07;;;21.40;;
71202;SDS011;58929;47.490;19.090;2023-03-23T01:33:55;34.80;;;20.08;;
71202;SDS011;58929;47.490;19.090;2023-03-23T01:36:25;33.42;;;20.40;;
71202;SDS011;58929;47.490;19.090;2023-03-23T01:38:58;33.30;;;20.40;;
71202;SDS011;58929;47.490;19.090;2023-03-23T01:41:26;41.42;;;23.42;;
71202;SDS011;58929;47.490;19.090;2023-03-23T01:43:53;45.47;;;22.80;;
71202;SDS011;58929;47.490;19.090;2023-03-23T01:46:22;44.65;;;22.90;;
71202;SDS011;58929;47.490;19.090;2023-03-23T01:48:49;43.25;;;23.27;;
71202;SDS011;58929;47.490;19.090;2023-03-23T01:53:46;40.00;;;22.38;;
71202;SDS011;58929;47.490;19.090;2023-03-23T01:56:15;41.65;;;23.00;;
71202;SDS011;58929;47.490;19.090;2023-03-23T01:58:44;44.92;;;21.98;;
71202;SDS011;58929;47.490;19.090;2023-03-23T02:01:15;45.53;;;23.35;;
71202;SDS011;58929;47.490;19.090;2023-03-23T02:03:43;36.65;;;19.45;;
71202;SDS011;58929;47.490;19.090;2023-03-23T02:06:12;33.70;;;20.05;;
71202;SDS011;58929;47.490;19.090;2023-03-23T02:08:58;32.35;;;20.48;;
71202;SDS011;58929;47.490;19.090;2023-03-23T02:11:26;34.45;;;21.17;;
71202;SDS011;58929;47.490;19.090;2023-03-23T02:13:52;41.57;;;21.50;;
71202;SDS011;58929;47.490;19.090;2023-03-23T02:16:21;38.97;;;21.50;;
71202;SDS011;58929;47.490;19.090;2023-03-23T02:18:53;39.72;;;21.50;;
71202;SDS011;58929;47.490;19.090;2023-03-23T02:26:53;38.50;;;21.52;;
71202;SDS011;58929;47.490;19.090;2023-03-23T02:29:30;40.80;;;22.13;;
71202;SDS011;58929;47.490;19.090;2023-03-23T02:32:04;46.63;;;23.10;;
71202;SDS011;58929;47.490;19.090;2023-03-23T02:34:39;45.38;;;23.25;;
71202;SDS011;58929;47.490;19.090;2023-03-23T02:37:08;49.85;;;24.08;;
71202;SDS011;58929;47.490;19.090;2023-03-23T02:39:37;44.85;;;22.95;;
71202;SDS011;58929;47.490;19.090;2023-03-23T02:42:08;52.78;;;23.95;;
71202;SDS011;58929;47.490;19.090;2023-03-23T02:44:35;35.83;;;20.42;;
71202;SDS011;58929;47.490;19.090;2023-03-23T02:47:05;46.60;;;23.52;;
71202;SDS011;58929;47.490;19.090;2023-03-23T02:49:34;51.15;;;23.77;;
71202;SDS011;58929;47.490;19.090;2023-03-23T02:52:04;50.97;;;22.65;;
71202;SDS011;58929;47.490;19.090;2023-03-23T02:54:31;49.85;;;23.35;;
71202;SDS011;58929;47.490;19.090;2023-03-23T02:56:58;42.20;;;24.07;;
71202;SDS011;58929;47.490;19.090;2023-03-23T02:59:29;58.42;;;24.98;;
71202;SDS011;58929;47.490;19.090;2023-03-23T03:01:58;45.53;;;23.42;;
71202;SDS011;58929;47.490;19.090;2023-03-23T03:04:26;45.80;;;23.25;;
71202;SDS011;58929;47.490;19.090;2023-03-23T03:06:58;49.90;;;23.70;;
71202;SDS011;58929;47.490;19.090;2023-03-23T03:09:31;46.55;;;23.30;;
71202;SDS011;58929;47.490;19.090;2023-03-23T03:12:02;49.40;;;24.27;;
71202;SDS011;58929;47.490;19.090;2023-03-23T03:14:31;44.05;;;22.98;;
71202;SDS011;58929;47.490;19.090;2023-03-23T03:17:02;44.72;;;23.73;;
71202;SDS011;58929;47.490;19.090;2023-03-23T03:19:32;48.78;;;22.83;;
71202;SDS011;58929;47.490;19.090;2023-03-23T03:22:01;42.47;;;24.40;;
71202;SDS011;58929;47.490;19.090;2023-03-23T03:24:38;61.78;;;24.35;;
71202;SDS011;58929;47.490;19.090;2023-03-23T03:27:10;57.83;;;23.67;;
71202;SDS011;58929;47.490;19.090;2023-03-23T03:29:46;52.25;;;25.02;;
71202;SDS011;58929;47.490;19.090;2023-03-23T03:32:17;52.38;;;23.83;;
71202;SDS011;58929;47.490;19.090;2023-03-23T03:34:45;47.47;;;23.63;;
71202;SDS011;58929;47.490;19.090;2023-03-23T03:37:13;47.92;;;24.23;;
71202;SDS011;58929;47.490;19.090;2023-03-23T03:39:43;49.95;;;24.15;;
71202;SDS011;58929;47.490;19.090;2023-03-23T03:42:10;45.97;;;25.13;;
71202;SDS011;58929;47.490;19.090;2023-03-23T03:44:37;60.47;;;25.53;;
71202;SDS011;58929;47.490;19.090;2023-03-23T03:47:04;50.47;;;25.00;;
71202;SDS011;58929;47.490;19.090;2023-03-23T03:49:31;59.17;;;25.95;;
71202;SDS011;58929;47.490;19.090;2023-03-23T03:51:57;53.83;;;24.43;;
71202;SDS011;58929;47.490;19.090;2023-03-23T03:54:34;58.88;;;23.92;;
71202;SDS011;58929;47.490;19.090;2023-03-23T03:57:03;57.15;;;25.35;;
71202;SDS011;58929;47.490;19.090;2023-03-23T03:59:53;58.20;;;24.35;;
71202;SDS011;58929;47.490;19.090;2023-03-23T04:02:38;64.20;;;25.48;;
71202;SDS011;58929;47.490;19.090;2023-03-23T04:05:06;61.70;;;25.73;;
71202;SDS011;58929;47.490;19.090;2023-03-23T04:07:34;50.70;;;24.85;;
71202;SDS011;58929;47.490;19.090;2023-03-23T04:10:05;60.80;;;24.42;;
71202;SDS011;58929;47.490;19.090;2023-03-23T04:12:34;61.05;;;25.42;;
71202;SDS011;58929;47.490;19.090;2023-03-23T04:15:20;56.83;;;24.42;;
71202;SDS011;58929;47.490;19.090;2023-03-23T04:17:49;57.13;;;24.95;;
71202;SDS011;58929;47.490;19.090;2023-03-23T04:20:16;54.13;;;24.42;;
71202;SDS011;58929;47.490;19.090;2023-03-23T04:22:47;58.90;;;27.25;;
71202;SDS011;58929;47.490;19.090;2023-03-23T04:25:16;54.50;;;25.00;;
71202;SDS011;58929;47.490;19.090;2023-03-23T04:27:49;60.92;;;27.08;;
71202;SDS011;58929;47.490;19.090;2023-03-23T04:30:21;55.47;;;25.98;;
71202;SDS011;58929;47.490;19.090;2023-03-23T04:32:59;64.40;;;28.20;;
71202;SDS011;58929;47.490;19.090;2023-03-23T04:35:28;57.80;;;27.20;;
71202;SDS011;58929;47.490;19.090;2023-03-23T04:38:10;57.78;;;26.20;;
71202;SDS011;58929;47.490;19.090;2023-03-23T04:40:37;62.42;;;27.25;;
71202;SDS011;58929;47.490;19.090;2023-03-23T04:43:16;64.43;;;25.63;;
71202;SDS011;58929;47.490;19.090;2023-03-23T04:46:15;73.57;;;27.00;;
71202;SDS011;58929;47.490;19.090;2023-03-23T04:48:45;61.17;;;27.63;;
71202;SDS011;58929;47.490;19.090;2023-03-23T04:51:18;63.72;;;26.25;;
71202;SDS011;58929;47.490;19.090;2023-03-23T04:53:48;76.90;;;27.23;;
71202;SDS011;58929;47.490;19.090;2023-03-23T04:56:15;69.95;;;26.95;;
71202;SDS011;58929;47.490;19.090;2023-03-23T04:58:45;62.53;;;27.13;;
71202;SDS011;58929;47.490;19.090;2023-03-23T05:01:26;66.53;;;26.45;;
71202;SDS011;58929;47.490;19.090;2023-03-23T05:04:19;71.65;;;27.15;;
71202;SDS011;58929;47.490;19.090;2023-03-23T05:07:03;59.17;;;26.50;;
71202;SDS011;58929;47.490;19.090;2023-03-23T05:09:34;52.75;;;25.77;;
71202;SDS011;58929;47.490;19.090;2023-03-23T05:12:05;56.70;;;26.20;;
71202;SDS011;58929;47.490;19.090;2023-03-23T05:14:35;51.17;;;25.00;;
71202;SDS011;58929;47.490;19.090;2023-03-23T05:17:09;60.33;;;24.90;;
71202;SDS011;58929;47.490;19.090;2023-03-23T05:19:36;53.05;;;25.05;;
71202;SDS011;58929;47.490;19.090;2023-03-23T05:22:15;61.33;;;27.23;;
71202;SDS011;58929;47.490;19.090;2023-03-23T05:24:47;52.38;;;25.63;;
71202;SDS011;58929;47.490;19.090;2023-03-23T05:27:17;59.00;;;24.40;;
71202;SDS011;58929;47.490;19.090;2023-03-23T05:29:48;48.88;;;25.17;;
71202;SDS011;58929;47.490;19.090;2023-03-23T05:32:15;59.78;;;25.48;;
71202;SDS011;58929;47.490;19.090;2023-03-23T05:34:45;44.58;;;25.92;;
71202;SDS011;58929;47.490;19.090;2023-03-23T05:37:12;62.53;;;25.63;;
71202;SDS011;58929;47.490;19.090;2023-03-23T05:39:46;45.90;;;24.05;;
71202;SDS011;58929;47.490;19.090;2023-03-23T05:42:16;40.28;;;21.52;;
71202;SDS011;58929;47.490;19.090;2023-03-23T05:44:51;39.38;;;20.80;;
71202;SDS011;58929;47.490;19.090;2023-03-23T05:47:18;35.88;;;21.85;;
71202;SDS011;58929;47.490;19.090;2023-03-23T05:49:51;49.85;;;26.13;;
71202;SDS011;58929;47.490;19.090;2023-03-23T05:54:47;43.25;;;22.67;;
71202;SDS011;58929;47.490;19.090;2023-03-23T05:57:14;36.80;;;21.48;;
71202;SDS011;58929;47.490;19.090;2023-03-23T05:59:45;33.85;;;19.23;;
71202;SDS011;58929;47.490;19.090;2023-03-23T06:02:20;29.15;;;17.48;;
71202;SDS011;58929;47.490;19.090;2023-03-23T06:04:49;33.22;;;18.05;;
71202;SDS011;58929;47.490;19.090;2023-03-23T06:07:27;29.67;;;17.65;;
71202;SDS011;58929;47.490;19.090;2023-03-23T06:10:00;32.15;;;18.48;;
71202;SDS011;58929;47.490;19.090;2023-03-23T06:12:36;32.80;;;18.67;;
71202;SDS011;58929;47.490;19.090;2023-03-23T06:15:22;31.70;;;18.80;;
71202;SDS011;58929;47.490;19.090;2023-03-23T06:18:01;36.83;;;21.20;;
71202;SDS011;58929;47.490;19.090;2023-03-23T06:20:48;31.40;;;20.65;;
71202;SDS011;58929;47.490;19.090;2023-03-23T06:23:29;41.63;;;23.17;;
71202;SDS011;58929;47.490;19.090;2023-03-23T06:25:57;37.90;;;21.42;;
71202;SDS011;58929;47.490;19.090;2023-03-23T06:28:25;53.75;;;33.03;;
71202;SDS011;58929;47.490;19.090;2023-03-23T06:30:53;64.93;;;40.03;;
71202;SDS011;58929;47.490;19.090;2023-03-23T06:33:21;38.17;;;21.05;;
71202;SDS011;58929;47.490;19.090;2023-03-23T06:36:27;42.67;;;19.20;;
71202;SDS011;58929;47.490;19.090;2023-03-23T06:39:16;29.98;;;16.92;;
71202;SDS011;58929;47.490;19.090;2023-03-23T06:41:52;25.05;;;15.23;;
71202;SDS011;58929;47.490;19.090;2023-03-23T06:44:19;32.90;;;17.60;;
71202;SDS011;58929;47.490;19.090;2023-03-23T06:46:46;29.27;;;18.27;;
71202;SDS011;58929;47.490;19.090;2023-03-23T06:52:04;35.00;;;17.85;;
71202;SDS011;58929;47.490;19.090;2023-03-23T06:54:32;38.47;;;21.60;;
71202;SDS011;58929;47.490;19.090;2023-03-23T06:57:01;29.05;;;17.40;;
71202;SDS011;58929;47.490;19.090;2023-03-23T06:59:28;31.27;;;15.77;;
71202;SDS011;58929;47.490;19.090;2023-03-23T07:01:55;23.83;;;15.40;;
71202;SDS011;58929;47.490;19.090;2023-03-23T07:04:22;26.23;;;16.95;;
71202;SDS011;58929;47.490;19.090;2023-03-23T07:06:59;37.28;;;22.65;;
71202;SDS011;58929;47.490;19.090;2023-03-23T07:09:28;64.05;;;38.95;;
71202;SDS011;58929;47.490;19.090;2023-03-23T07:11:54;27.75;;;17.73;;
71202;SDS011;58929;47.490;19.090;2023-03-23T07:14:29;48.63;;;20.13;;
71202;SDS011;58929;47.490;19.090;2023-03-23T07:16:57;37.65;;;20.42;;
71202;SDS011;58929;47.490;19.090;2023-03-23T07:19:24;33.22;;;19.52;;
71202;SDS011;58929;47.490;19.090;2023-03-23T07:21:51;37.47;;;22.65;;
71202;SDS011;58929;47.490;19.090;2023-03-23T07:24:21;35.75;;;21.08;;
71202;SDS011;58929;47.490;19.090;2023-03-23T07:27:15;32.28;;;18.77;;
71202;SDS011;58929;47.490;19.090;2023-03-23T07:29:42;32.28;;;21.20;;
71202;SDS011;58929;47.490;19.090;2023-03-23T07:32:20;35.90;;;21.55;;
71202;SDS011;58929;47.490;19.090;2023-03-23T07:34:48;30.02;;;20.08;;
71202;SDS011;58929;47.490;19.090;2023-03-23T07:37:41;34.97;;;20.92;;
71202;SDS011;58929;47.490;19.090;2023-03-23T07:40:08;37.78;;;20.40;;
71202;SDS011;58929;47.490;19.090;2023-03-23T07:42:40;33.28;;;20.08;;
71202;SDS011;58929;47.490;19.090;2023-03-23T07:45:09;31.95;;;20.73;;
71202;SDS011;58929;47.490;19.090;2023-03-23T07:47:36;31.75;;;20.02;;
71202;SDS011;58929;47.490;19.090;2023-03-23T07:50:05;36.28;;;19.35;;
71202;SDS011;58929;47.490;19.090;2023-03-23T07:52:40;29.23;;;20.48;;
71202;SDS011;58929;47.490;19.090;2023-03-23T07:55:09;28.98;;;19.70;;
71202;SDS011;58929;47.490;19.090;2023-03-23T07:58:01;31.55;;;20.27;;
71202;SDS011;58929;47.490;19.090;2023-03-23T08:00:28;33.25;;;20.67;;
71202;SDS011;58929;47.490;19.090;2023-03-23T08:02:56;34.45;;;20.83;;
71202;SDS011;58929;47.490;19.090;2023-03-23T08:05:32;31.88;;;20.63;;
71202;SDS011;58929;47.490;19.090;2023-03-23T08:08:14;41.17;;;21.50;;
71202;SDS011;58929;47.490;19.090;2023-03-23T08:11:00;36.97;;;21.88;;
71202;SDS011;58929;47.490;19.090;2023-03-23T08:13:50;45.75;;;23.33;;
71202;SDS011;58929;47.490;19.090;2023-03-23T08:19:43;31.08;;;21.33;;
71202;SDS011;58929;47.490;19.090;2023-03-23T08:22:29;35.72;;;20.20;;
71202;SDS011;58929;47.490;19.090;2023-03-23T08:25:25;39.42;;;21.65;;
71202;SDS011;58929;47.490;19.090;2023-03-23T08:28:05;36.03;;;19.33;;
71202;SDS011;58929;47.490;19.090;2023-03-23T08:30:52;30.92;;;18.58;;
71202;SDS011;58929;47.490;19.090;2023-03-23T08:33:52;33.70;;;18.45;;
71202;SDS011;58929;47.490;19.090;2023-03-23T08:36:45;32.28;;;18.27;;
71202;SDS011;58929;47.490;19.090;2023-03-23T08:39:12;34.03;;;20.05;;
71202;SDS011;58929;47.490;19.090;2023-03-23T08:42:15;26.73;;;18.30;;
71202;SDS011;58929;47.490;19.090;2023-03-23T08:44:52;38.87;;;19.43;;
71202;SDS011;58929;47.490;19.090;2023-03-23T08:47:39;35.13;;;18.75;;
71202;SDS011;58929;47.490;19.090;2023-03-23T08:50:26;32.15;;;20.15;;
71202;SDS011;58929;47.490;19.090;2023-03-23T08:53:12;39.65;;;20.27;;
71202;SDS011;58929;47.490;19.090;2023-03-23T08:56:03;30.05;;;18.08;;
71202;SDS011;58929;47.490;19.090;2023-03-23T08:58:59;27.70;;;17.85;;
71202;SDS011;58929;47.490;19.090;2023-03-23T09:01:38;25.08;;;16.90;;
71202;SDS011;58929;47.490;19.090;2023-03-23T09:04:20;36.65;;;19.42;;
71202;SDS011;58929;47.490;19.090;2023-03-23T09:07:01;27.40;;;17.60;;
71202;SDS011;58929;47.490;19.090;2023-03-23T09:09:28;31.95;;;18.58;;
71202;SDS011;58929;47.490;19.090;2023-03-23T09:11:55;38.53;;;18.30;;
71202;SDS011;58929;47.490;19.090;2023-03-23T09:14:22;38.87;;;18.30;;
71202;SDS011;58929;47.490;19.090;2023-03-23T09:16:49;30.43;;;17.40;;
71202;SDS011;58929;47.490;19.090;2023-03-23T09:19:15;25.00;;;15.53;;
71202;SDS011;58929;47.490;19.090;2023-03-23T09:21:44;28.80;;;16.50;;
71202;SDS011;58929;47.490;19.090;2023-03-23T09:24:11;27.02;;;15.57;;
71202;SDS011;58929;47.490;19.090;2023-03-23T09:26:38;22.83;;;14.25;;
71202;SDS011;58929;47.490;19.090;2023-03-23T09:29:05;29.67;;;16.67;;
71202;SDS011;58929;47.490;19.090;2023-03-23T09:31:32;33.58;;;15.02;;
71202;SDS011;58929;47.490;19.090;2023-03-23T09:34:02;33.80;;;16.05;;
71202;SDS011;58929;47.490;19.090;2023-03-23T09:36:30;30.33;;;16.40;;
71202;SDS011;58929;47.490;19.090;2023-03-23T09:38:59;25.02;;;15.02;;
71202;SDS011;58929;47.490;19.090;2023-03-23T09:41:48;27.95;;;14.35;;
71202;SDS011;58929;47.490;19.090;2023-03-23T09:44:22;23.17;;;14.07;;
71202;SDS011;58929;47.490;19.090;2023-03-23T09:46:53;23.48;;;15.40;;
71202;SDS011;58929;47.490;19.090;2023-03-23T09:49:23;20.83;;;11.73;;
71202;SDS011;58929;47.490;19.090;2023-03-23T09:51:53;25.73;;;12.38;;
71202;SDS011;58929;47.490;19.090;2023-03-23T09:54:24;26.38;;;12.82;;
71202;SDS011;58929;47.490;19.090;2023-03-23T09:56:52;23.70;;;12.68;;
71202;SDS011;58929;47.490;19.090;2023-03-23T09:59:22;22.40;;;11.73;;
71202;SDS011;58929;47.490;19.090;2023-03-23T10:01:50;21.42;;;12.27;;
71202;SDS011;58929;47.490;19.090;2023-03-23T10:04:24;22.83;;;11.35;;
71202;SDS011;58929;47.490;19.090;2023-03-23T10:06:51;23.27;;;12.52;;
71202;SDS011;58929;47.490;19.090;2023-03-23T10:09:19;17.70;;;10.98;;
71202;SDS011;58929;47.490;19.090;2023-03-23T10:11:53;17.98;;;9.82;;
71202;SDS011;58929;47.490;19.090;2023-03-23T10:14:28;19.30;;;10.50;;
71202;SDS011;58929;47.490;19.090;2023-03-23T10:16:57;24.98;;;10.70;;
71202;SDS011;58929;47.490;19.090;2023-03-23T10:19:27;23.45;;;11.13;;
71202;SDS011;58929;47.490;19.090;2023-03-23T10:21:57;17.05;;;10.65;;
71202;SDS011;58929;47.490;19.090;2023-03-23T10:24:27;30.73;;;12.05;;
71202;SDS011;58929;47.490;19.090;2023-03-23T10:27:03;23.67;;;11.55;;
71202;SDS011;58929;47.490;19.090;2023-03-23T10:29:33;32.90;;;11.68;;
71202;SDS011;58929;47.490;19.090;2023-03-23T10:32:03;16.10;;;10.02;;
71202;SDS011;58929;47.490;19.090;2023-03-23T10:34:32;28.27;;;12.90;;
71202;SDS011;58929;47.490;19.090;2023-03-23T10:37:02;22.15;;;9.55;;
71202;SDS011;58929;47.490;19.090;2023-03-23T10:39:32;27.20;;;10.25;;
71202;SDS011;58929;47.490;19.090;2023-03-23T10:42:05;20.17;;;9.63;;
71202;SDS011;58929;47.490;19.090;2023-03-23T10:44:33;25.52;;;8.55;;
71202;SDS011;58929;47.490;19.090;2023-03-23T10:47:01;17.20;;;8.07;;
71202;SDS011;58929;47.490;19.090;2023-03-23T10:49:31;22.80;;;8.65;;
71202;SDS011;58929;47.490;19.090;2023-03-23T10:52:01;20.80;;;9.13;;
71202;SDS011;58929;47.490;19.090;2023-03-23T10:54:34;38.75;;;9.45;;
71202;SDS011;58929;47.490;19.090;2023-03-23T10:57:13;18.23;;;8.85;;
71202;SDS011;58929;47.490;19.090;2023-03-23T10:59:47;16.92;;;8.10;;
71202;SDS011;58929;47.490;19.090;2023-03-23T11:02:16;17.83;;;8.15;;
71202;SDS011;58929;47.490;19.090;2023-03-23T11:04:53;15.82;;;8.18;;
71202;SDS011;58929;47.490;19.090;2023-03-23T11:07:25;12.20;;;7.20;;
71202;SDS011;58929;47.490;19.090;2023-03-23T11:09:54;16.58;;;7.22;;
71202;SDS011;58929;47.490;19.090;2023-03-23T11:12:22;9.32;;;5.97;;
71202;SDS011;58929;47.490;19.090;2023-03-23T11:14:49;12.27;;;6.35;;
71202;SDS011;58929;47.490;19.090;2023-03-23T11:19:44;18.85;;;5.50;;
71202;SDS011;58929;47.490;19.090;2023-03-23T11:22:13;11.15;;;5.57;;
71202;SDS011;58929;47.490;19.090;2023-03-23T11:24:44;14.07;;;6.05;;
71202;SDS011;58929;47.490;19.090;2023-03-23T11:27:13;10.80;;;5.40;;
71202;SDS011;58929;47.490;19.090;2023-03-23T11:29:45;10.38;;;5.38;;
71202;SDS011;58929;47.490;19.090;2023-03-23T11:32:14;15.82;;;7.43;;
71202;SDS011;58929;47.490;19.090;2023-03-23T11:34:41;22.75;;;10.75;;
71202;SDS011;58929;47.490;19.090;2023-03-23T11:37:10;17.60;;;7.72;;
71202;SDS011;58929;47.490;19.090;2023-03-23T11:39:46;11.65;;;5.95;;
71202;SDS011;58929;47.490;19.090;2023-03-23T11:42:18;15.13;;;5.28;;
71202;SDS011;58929;47.490;19.090;2023-03-23T11:44:47;8.90;;;4.43;;
71202;SDS011;58929;47.490;19.090;2023-03-23T11:47:16;16.70;;;5.20;;
71202;SDS011;58929;47.490;19.090;2023-03-23T11:49:45;13.38;;;4.43;;
71202;SDS011;58929;47.490;19.090;2023-03-23T11:52:16;13.23;;;5.40;;
71202;SDS011;58929;47.490;19.090;2023-03-23T11:54:49;12.32;;;5.47;;
71202;SDS011;58929;47.490;19.090;2023-03-23T11:57:17;14.57;;;4.70;;
71202;SDS011;58929;47.490;19.090;2023-03-23T11:59:44;9.27;;;4.28;;
71202;SDS011;58929;47.490;19.090;2023-03-23T12:05:01;11.57;;;4.93;;
71202;SDS011;58929;47.490;19.090;2023-03-23T12:07:37;13.73;;;5.17;;
71202;SDS011;58929;47.490;19.090;2023-03-23T12:10:10;8.48;;;4.85;;
71202;SDS011;58929;47.490;19.090;2023-03-23T12:12:42;12.77;;;4.57;;
71202;SDS011;58929;47.490;19.090;2023-03-23T12:15:14;11.50;;;4.50;;
71202;SDS011;58929;47.490;19.090;2023-03-23T12:17:45;8.27;;;4.85;;
71202;SDS011;58929;47.490;19.090;2023-03-23T12:20:24;10.10;;;4.60;;
71202;SDS011;58929;47.490;19.090;2023-03-23T12:22:59;10.25;;;4.38;;
71202;SDS011;58929;47.490;19.090;2023-03-23T12:25:38;8.57;;;4.55;;
71202;SDS011;58929;47.490;19.090;2023-03-23T12:28:12;13.88;;;5.55;;
71202;SDS011;58929;47.490;19.090;2023-03-23T12:30:44;6.55;;;4.47;;
71202;SDS011;58929;47.490;19.090;2023-03-23T12:33:18;7.25;;;4.03;;
71202;SDS011;58929;47.490;19.090;2023-03-23T12:35:50;10.57;;;4.22;;
71202;SDS011;58929;47.490;19.090;2023-03-23T12:38:25;7.70;;;4.38;;
71202;SDS011;58929;47.490;19.090;2023-03-23T12:41:00;9.50;;;4.10;;
71202;SDS011;58929;47.490;19.090;2023-03-23T12:43:32;7.65;;;3.75;;
71202;SDS011;58929;47.490;19.090;2023-03-23T12:46:05;9.27;;;3.78;;
71202;SDS011;58929;47.490;19.090;2023-03-23T12:48:37;6.22;;;3.28;;
71202;SDS011;58929;47.490;19.090;2023-03-23T12:51:16;8.02;;;3.53;;
71202;SDS011;58929;47.490;19.090;2023-03-23T12:53:55;8.90;;;3.78;;
71202;SDS011;58929;47.490;19.090;2023-03-23T12:56:24;4.60;;;3.70;;
71202;SDS011;58929;47.490;19.090;2023-03-23T12:58:54;9.40;;;4.20;;
71202;SDS011;58929;47.490;19.090;2023-03-23T13:01:23;10.68;;;3.90;;
71202;SDS011;58929;47.490;19.090;2023-03-23T13:03:53;7.07;;;3.75;;
71202;SDS011;58929;47.490;19.090;2023-03-23T13:06:23;10.73;;;3.95;;
71202;SDS011;58929;47.490;19.090;2023-03-23T13:08:53;8.75;;;3.95;;
71202;SDS011;58929;47.490;19.090;2023-03-23T13:11:22;8.20;;;4.15;;
71202;SDS011;58929;47.490;19.090;2023-03-23T13:13:51;4.03;;;3.25;;
71202;SDS011;58929;47.490;19.090;2023-03-23T13:16:25;5.75;;;3.65;;
71202;SDS011;58929;47.490;19.090;2023-03-23T13:18:56;8.70;;;3.38;;
71202;SDS011;58929;47.490;19.090;2023-03-23T13:21:29;6.40;;;3.20;;
71202;SDS011;58929;47.490;19.090;2023-03-23T13:23:58;8.88;;;3.65;;
71202;SDS011;58929;47.490;19.090;2023-03-23T13:26:27;9.10;;;2.85;;
71202;SDS011;58929;47.490;19.090;2023-03-23T13:28:56;8.10;;;3.03;;
71202;SDS011;58929;47.490;19.090;2023-03-23T13:31:25;6.05;;;2.95;;
71202;SDS011;58929;47.490;19.090;2023-03-23T13:34:01;4.40;;;3.03;;
71202;SDS011;58929;47.490;19.090;2023-03-23T13:36:31;11.35;;;3.28;;
71202;SDS011;58929;47.490;19.090;2023-03-23T13:38:58;6.43;;;3.47;;
71202;SDS011;58929;47.490;19.090;2023-03-23T13:41:26;8.25;;;2.78;;
71202;SDS011;58929;47.490;19.090;2023-03-23T13:43:54;9.50;;;3.17;;
71202;SDS011;58929;47.490;19.090;2023-03-23T13:51:57;8.07;;;3.95;;
71202;SDS011;58929;47.490;19.090;2023-03-23T13:54:29;8.75;;;3.67;;
71202;SDS011;58929;47.490;19.090;2023-03-23T13:56:57;8.25;;;3.60;;
71202;SDS011;58929;47.490;19.090;2023-03-23T13:59:31;7.38;;;3.90;;
71202;SDS011;58929;47.490;19.090;2023-03-23T14:04:40;4.78;;;3.95;;
71202;SDS011;58929;47.490;19.090;2023-03-23T14:07:10;11.70;;;4.18;;
71202;SDS011;58929;47.490;19.090;2023-03-23T14:09:38;12.80;;;3.88;;
71202;SDS011;58929;47.490;19.090;2023-03-23T14:12:05;8.38;;;3.97;;
71202;SDS011;58929;47.490;19.090;2023-03-23T14:14:40;10.95;;;4.32;;
71202;SDS011;58929;47.490;19.090;2023-03-23T14:17:10;5.38;;;3.83;;
71202;SDS011;58929;47.490;19.090;2023-03-23T14:19:38;6.03;;;3.60;;
71202;SDS011;58929;47.490;19.090;2023-03-23T14:22:16;6.88;;;4.35;;
71202;SDS011;58929;47.490;19.090;2023-03-23T14:27:38;10.43;;;3.58;;
71202;SDS011;58929;47.490;19.090;2023-03-23T14:30:08;12.02;;;4.10;;
71202;SDS011;58929;47.490;19.090;2023-03-23T14:32:35;4.47;;;3.83;;
71202;SDS011;58929;47.490;19.090;2023-03-23T14:37:30;7.30;;;3.17;;
71202;SDS011;58929;47.490;19.090;2023-03-23T14:39:58;8.30;;;4.13;;
71202;SDS011;58929;47.490;19.090;2023-03-23T14:42:27;5.38;;;4.20;;
71202;SDS011;58929;47.490;19.090;2023-03-23T14:44:55;7.75;;;4.10;;
71202;SDS011;58929;47.490;19.090;2023-03-23T14:47:23;12.00;;;4.55;;
71202;SDS011;58929;47.490;19.090;2023-03-23T14:49:52;7.05;;;4.28;;
71202;SDS011;58929;47.490;19.090;2023-03-23T14:52:21;16.67;;;3.92;;
71202;SDS011;58929;47.490;19.090;2023-03-23T14:54:52;6.88;;;3.55;;
71202;SDS011;58929;47.490;19.090;2023-03-23T14:57:19;12.02;;;4.38;;
71202;SDS011;58929;47.490;19.090;2023-03-23T14:59:52;6.55;;;3.53;;
71202;SDS011;58929;47.490;19.090;2023-03-23T15:02:20;6.80;;;3.60;;
71202;SDS011;58929;47.490;19.090;2023-03-23T15:04:49;8.88;;;3.30;;
71202;SDS011;58929;47.490;19.090;2023-03-23T15:07:17;12.52;;;3.10;;
71202;SDS011;58929;47.490;19.090;2023-03-23T15:09:44;5.28;;;3.10;;
71202;SDS011;58929;47.490;19.090;2023-03-23T15:12:18;7.80;;;3.47;;
71202;SDS011;58929;47.490;19.090;2023-03-23T15:14:47;9.18;;;3.55;;
71202;SDS011;58929;47.490;19.090;2023-03-23T15:17:17;12.75;;;3.63;;